sensor_id;sensor_type;location;lat;lon;timestamp;P1;durP1;ratioP1;P2;durP2;ratioP2
42840;SDS011;28491;46.898;7.660;2022-08-07T00:01:10;12.98;;;9.43;;
42840;SDS011;28491;46.898;7.660;2022-08-07T00:03:35;10.43;;;8.57;;
42840;SDS011;28491;46.898;7.660;2022-08-07T00:06:01;8.50;;;7.60;;
42840;SDS011;28491;46.898;7.660;2022-08-07T00:08:27;10.77;;;9.02;;
42840;SDS011;28491;46.898;7.660;2022-08-07T00:10:53;11.43;;;10.23;;
42840;SDS011;28491;46.898;7.660;2022-08-07T00:13:19;13.48;;;9.65;;
42840;SDS011;28491;46.898;7.660;2022-08-07T00:15:46;9.52;;;8.52;;
42840;SDS011;28491;46.898;7.660;2022-08-07T00:18:16;9.70;;;8.30;;
42840;SDS011;28491;46.898;7.660;2022-08-07T00:20:43;10.32;;;8.75;;
42840;SDS011;28491;46.898;7.660;2022-08-07T00:23:09;11.45;;;9.02;;
42840;SDS011;28491;46.898;7.660;2022-08-07T00:25:35;11.93;;;8.52;;
42840;SDS011;28491;46.898;7.660;2022-08-07T00:28:01;14.82;;;10.45;;
42840;SDS011;28491;46.898;7.660;2022-08-07T00:30:27;9.70;;;8.63;;
42840;SDS011;28491;46.898;7.660;2022-08-07T00:32:57;13.70;;;9.02;;
42840;SDS011;28491;46.898;7.660;2022-08-07T00:35:26;9.82;;;8.82;;
42840;SDS011;28491;46.898;7.660;2022-08-07T00:37:52;10.98;;;8.98;;
42840;SDS011;28491;46.898;7.660;2022-08-07T00:40:18;11.52;;;9.73;;
42840;SDS011;28491;46.898;7.660;2022-08-07T00:42:44;11.45;;;9.23;;
42840;SDS011;28491;46.898;7.660;2022-08-07T00:45:09;10.70;;;9.60;;
42840;SDS011;28491;46.898;7.660;2022-08-07T00:47:35;10.88;;;9.75;;
42840;SDS011;28491;46.898;7.660;2022-08-07T00:50:01;11.15;;;9.88;;
42840;SDS011;28491;46.898;7.660;2022-08-07T00:52:28;9.57;;;8.43;;
42840;SDS011;28491;46.898;7.660;2022-08-07T00:54:53;11.52;;;9.77;;
42840;SDS011;28491;46.898;7.660;2022-08-07T00:57:20;10.20;;;8.80;;
42840;SDS011;28491;46.898;7.660;2022-08-07T00:59:46;11.27;;;8.40;;
42840;SDS011;28491;46.898;7.660;2022-08-07T01:02:12;10.50;;;8.65;;
42840;SDS011;28491;46.898;7.660;2022-08-07T01:04:38;11.63;;;10.45;;
42840;SDS011;28491;46.898;7.660;2022-08-07T01:07:04;13.88;;;9.20;;
42840;SDS011;28491;46.898;7.660;2022-08-07T01:09:29;10.23;;;8.90;;
42840;SDS011;28491;46.898;7.660;2022-08-07T01:11:56;11.80;;;9.65;;
42840;SDS011;28491;46.898;7.660;2022-08-07T01:14:22;11.93;;;9.35;;
42840;SDS011;28491;46.898;7.660;2022-08-07T01:16:48;11.30;;;9.05;;
42840;SDS011;28491;46.898;7.660;2022-08-07T01:19:16;10.57;;;9.48;;
42840;SDS011;28491;46.898;7.660;2022-08-07T01:21:43;10.52;;;9.43;;
42840;SDS011;28491;46.898;7.660;2022-08-07T01:24:10;9.82;;;8.55;;
42840;SDS011;28491;46.898;7.660;2022-08-07T01:26:36;10.38;;;9.10;;
42840;SDS011;28491;46.898;7.660;2022-08-07T01:29:02;12.55;;;9.00;;
42840;SDS011;28491;46.898;7.660;2022-08-07T01:31:28;12.45;;;9.43;;
42840;SDS011;28491;46.898;7.660;2022-08-07T01:33:58;9.93;;;8.38;;
42840;SDS011;28491;46.898;7.660;2022-08-07T01:36:24;9.95;;;8.93;;
42840;SDS011;28491;46.898;7.660;2022-08-07T01:38:51;11.65;;;8.93;;
42840;SDS011;28491;46.898;7.660;2022-08-07T01:41:17;12.23;;;9.15;;
42840;SDS011;28491;46.898;7.660;2022-08-07T01:43:44;12.88;;;10.25;;
42840;SDS011;28491;46.898;7.660;2022-08-07T01:46:10;12.68;;;10.15;;
42840;SDS011;28491;46.898;7.660;2022-08-07T01:48:37;12.68;;;9.68;;
42840;SDS011;28491;46.898;7.660;2022-08-07T01:51:06;12.38;;;11.10;;
42840;SDS011;28491;46.898;7.660;2022-08-07T01:53:34;14.40;;;10.93;;
42840;SDS011;28491;46.898;7.660;2022-08-07T01:56:03;12.18;;;10.05;;
42840;SDS011;28491;46.898;7.660;2022-08-07T01:58:33;11.38;;;9.98;;
42840;SDS011;28491;46.898;7.660;2022-08-07T02:01:03;18.35;;;10.90;;
42840;SDS011;28491;46.898;7.660;2022-08-07T02:03:34;13.15;;;10.35;;
42840;SDS011;28491;46.898;7.660;2022-08-07T02:06:06;12.98;;;10.55;;
42840;SDS011;28491;46.898;7.660;2022-08-07T02:08:34;15.30;;;11.18;;
42840;SDS011;28491;46.898;7.660;2022-08-07T02:11:04;11.55;;;10.00;;
42840;SDS011;28491;46.898;7.660;2022-08-07T02:13:31;11.73;;;8.85;;
42840;SDS011;28491;46.898;7.660;2022-08-07T02:15:58;11.90;;;10.70;;
42840;SDS011;28491;46.898;7.660;2022-08-07T02:18:26;11.82;;;9.20;;
42840;SDS011;28491;46.898;7.660;2022-08-07T02:20:53;10.05;;;9.02;;
42840;SDS011;28491;46.898;7.660;2022-08-07T02:23:21;12.23;;;9.50;;
42840;SDS011;28491;46.898;7.660;2022-08-07T02:25:48;10.88;;;9.55;;
42840;SDS011;28491;46.898;7.660;2022-08-07T02:28:17;9.73;;;8.68;;
42840;SDS011;28491;46.898;7.660;2022-08-07T02:30:44;10.82;;;9.48;;
42840;SDS011;28491;46.898;7.660;2022-08-07T02:33:11;11.45;;;9.63;;
42840;SDS011;28491;46.898;7.660;2022-08-07T02:35:39;12.73;;;10.93;;
42840;SDS011;28491;46.898;7.660;2022-08-07T02:38:06;15.10;;;10.68;;
42840;SDS011;28491;46.898;7.660;2022-08-07T02:40:35;12.90;;;10.68;;
42840;SDS011;28491;46.898;7.660;2022-08-07T02:43:02;12.55;;;10.45;;
42840;SDS011;28491;46.898;7.660;2022-08-07T02:45:30;12.82;;;10.63;;
42840;SDS011;28491;46.898;7.660;2022-08-07T02:47:58;14.85;;;10.70;;
42840;SDS011;28491;46.898;7.660;2022-08-07T02:50:24;14.88;;;10.90;;
42840;SDS011;28491;46.898;7.660;2022-08-07T02:53:00;13.68;;;10.32;;
42840;SDS011;28491;46.898;7.660;2022-08-07T02:55:31;12.30;;;10.23;;
42840;SDS011;28491;46.898;7.660;2022-08-07T02:58:03;10.60;;;8.25;;
42840;SDS011;28491;46.898;7.660;2022-08-07T03:00:32;12.15;;;8.55;;
42840;SDS011;28491;46.898;7.660;2022-08-07T03:02:59;9.60;;;8.60;;
42840;SDS011;28491;46.898;7.660;2022-08-07T03:05:26;10.02;;;8.75;;
42840;SDS011;28491;46.898;7.660;2022-08-07T03:07:52;13.70;;;10.15;;
42840;SDS011;28491;46.898;7.660;2022-08-07T03:10:20;14.75;;;9.90;;
42840;SDS011;28491;46.898;7.660;2022-08-07T03:12:46;11.18;;;9.65;;
42840;SDS011;28491;46.898;7.660;2022-08-07T03:15:13;9.25;;;8.27;;
42840;SDS011;28491;46.898;7.660;2022-08-07T03:17:40;9.02;;;8.10;;
42840;SDS011;28491;46.898;7.660;2022-08-07T03:20:06;10.07;;;8.98;;
42840;SDS011;28491;46.898;7.660;2022-08-07T03:22:32;10.88;;;9.10;;
42840;SDS011;28491;46.898;7.660;2022-08-07T03:24:59;10.93;;;8.88;;
42840;SDS011;28491;46.898;7.660;2022-08-07T03:27:25;9.98;;;8.57;;
42840;SDS011;28491;46.898;7.660;2022-08-07T03:29:52;11.45;;;10.15;;
42840;SDS011;28491;46.898;7.660;2022-08-07T03:32:36;11.70;;;9.80;;
42840;SDS011;28491;46.898;7.660;2022-08-07T03:35:04;14.57;;;10.88;;
42840;SDS011;28491;46.898;7.660;2022-08-07T03:37:33;12.13;;;10.80;;
42840;SDS011;28491;46.898;7.660;2022-08-07T03:40:02;12.33;;;11.03;;
42840;SDS011;28491;46.898;7.660;2022-08-07T03:42:28;16.38;;;10.63;;
42840;SDS011;28491;46.898;7.660;2022-08-07T03:44:57;11.95;;;10.68;;
42840;SDS011;28491;46.898;7.660;2022-08-07T03:47:23;12.45;;;11.05;;
42840;SDS011;28491;46.898;7.660;2022-08-07T03:49:50;13.13;;;11.70;;
42840;SDS011;28491;46.898;7.660;2022-08-07T03:52:15;13.88;;;11.43;;
42840;SDS011;28491;46.898;7.660;2022-08-07T03:54:42;13.52;;;11.35;;
42840;SDS011;28491;46.898;7.660;2022-08-07T03:57:08;13.55;;;11.52;;
42840;SDS011;28491;46.898;7.660;2022-08-07T03:59:34;13.95;;;11.70;;
42840;SDS011;28491;46.898;7.660;2022-08-07T04:02:00;17.60;;;12.85;;
42840;SDS011;28491;46.898;7.660;2022-08-07T04:04:26;15.68;;;11.75;;
42840;SDS011;28491;46.898;7.660;2022-08-07T04:06:52;15.15;;;13.13;;
42840;SDS011;28491;46.898;7.660;2022-08-07T04:09:18;13.50;;;12.15;;
42840;SDS011;28491;46.898;7.660;2022-08-07T04:11:45;14.48;;;12.88;;
42840;SDS011;28491;46.898;7.660;2022-08-07T04:14:11;17.52;;;12.80;;
42840;SDS011;28491;46.898;7.660;2022-08-07T04:16:37;13.10;;;11.50;;
42840;SDS011;28491;46.898;7.660;2022-08-07T04:19:03;15.15;;;13.40;;
42840;SDS011;28491;46.898;7.660;2022-08-07T04:21:29;16.65;;;12.85;;
42840;SDS011;28491;46.898;7.660;2022-08-07T04:23:55;15.98;;;14.27;;
42840;SDS011;28491;46.898;7.660;2022-08-07T04:26:22;16.10;;;13.75;;
42840;SDS011;28491;46.898;7.660;2022-08-07T04:28:47;18.00;;;14.60;;
42840;SDS011;28491;46.898;7.660;2022-08-07T04:31:13;16.20;;;14.55;;
42840;SDS011;28491;46.898;7.660;2022-08-07T04:33:39;17.90;;;14.82;;
42840;SDS011;28491;46.898;7.660;2022-08-07T04:36:06;17.45;;;15.60;;
42840;SDS011;28491;46.898;7.660;2022-08-07T04:38:33;18.58;;;14.95;;
42840;SDS011;28491;46.898;7.660;2022-08-07T04:40:59;18.50;;;15.10;;
42840;SDS011;28491;46.898;7.660;2022-08-07T04:43:35;19.55;;;14.75;;
42840;SDS011;28491;46.898;7.660;2022-08-07T04:46:04;17.52;;;15.38;;
42840;SDS011;28491;46.898;7.660;2022-08-07T04:51:14;17.35;;;15.45;;
42840;SDS011;28491;46.898;7.660;2022-08-07T04:53:55;17.33;;;15.55;;
42840;SDS011;28491;46.898;7.660;2022-08-07T04:56:31;20.67;;;16.33;;
42840;SDS011;28491;46.898;7.660;2022-08-07T04:59:13;18.40;;;15.27;;
42840;SDS011;28491;46.898;7.660;2022-08-07T05:01:59;18.58;;;16.30;;
42840;SDS011;28491;46.898;7.660;2022-08-07T05:04:34;21.02;;;16.40;;
42840;SDS011;28491;46.898;7.660;2022-08-07T05:07:18;20.15;;;17.02;;
42840;SDS011;28491;46.898;7.660;2022-08-07T05:09:52;17.38;;;15.23;;
42840;SDS011;28491;46.898;7.660;2022-08-07T05:12:26;17.30;;;15.45;;
42840;SDS011;28491;46.898;7.660;2022-08-07T05:14:57;19.20;;;15.77;;
42840;SDS011;28491;46.898;7.660;2022-08-07T05:17:39;18.33;;;14.88;;
42840;SDS011;28491;46.898;7.660;2022-08-07T05:20:08;19.97;;;15.50;;
42840;SDS011;28491;46.898;7.660;2022-08-07T05:22:37;17.08;;;15.23;;
42840;SDS011;28491;46.898;7.660;2022-08-07T05:25:05;19.90;;;14.63;;
42840;SDS011;28491;46.898;7.660;2022-08-07T05:27:32;17.02;;;14.70;;
42840;SDS011;28491;46.898;7.660;2022-08-07T05:29:58;16.10;;;14.30;;
42840;SDS011;28491;46.898;7.660;2022-08-07T05:32:25;16.50;;;14.43;;
42840;SDS011;28491;46.898;7.660;2022-08-07T05:34:52;16.77;;;14.85;;
42840;SDS011;28491;46.898;7.660;2022-08-07T05:37:19;21.25;;;16.00;;
42840;SDS011;28491;46.898;7.660;2022-08-07T05:39:46;18.90;;;15.10;;
42840;SDS011;28491;46.898;7.660;2022-08-07T05:42:13;18.88;;;15.30;;
42840;SDS011;28491;46.898;7.660;2022-08-07T05:44:39;17.10;;;14.93;;
42840;SDS011;28491;46.898;7.660;2022-08-07T05:47:04;21.08;;;17.08;;
42840;SDS011;28491;46.898;7.660;2022-08-07T05:49:31;37.10;;;17.02;;
42840;SDS011;28491;46.898;7.660;2022-08-07T05:51:58;21.02;;;15.55;;
42840;SDS011;28491;46.898;7.660;2022-08-07T05:54:24;18.75;;;15.38;;
42840;SDS011;28491;46.898;7.660;2022-08-07T05:56:49;17.40;;;15.50;;
42840;SDS011;28491;46.898;7.660;2022-08-07T05:59:18;20.80;;;16.02;;
42840;SDS011;28491;46.898;7.660;2022-08-07T06:01:45;16.67;;;14.98;;
42840;SDS011;28491;46.898;7.660;2022-08-07T06:04:13;16.35;;;14.52;;
42840;SDS011;28491;46.898;7.660;2022-08-07T06:06:40;22.65;;;16.55;;
42840;SDS011;28491;46.898;7.660;2022-08-07T06:09:06;20.80;;;16.67;;
42840;SDS011;28491;46.898;7.660;2022-08-07T06:11:32;21.02;;;15.40;;
42840;SDS011;28491;46.898;7.660;2022-08-07T06:13:58;18.17;;;15.38;;
42840;SDS011;28491;46.898;7.660;2022-08-07T06:16:26;17.08;;;15.20;;
42840;SDS011;28491;46.898;7.660;2022-08-07T06:18:55;17.73;;;15.45;;
42840;SDS011;28491;46.898;7.660;2022-08-07T06:21:23;18.98;;;15.90;;
42840;SDS011;28491;46.898;7.660;2022-08-07T06:23:49;17.30;;;15.45;;
42840;SDS011;28491;46.898;7.660;2022-08-07T06:26:14;19.83;;;16.15;;
42840;SDS011;28491;46.898;7.660;2022-08-07T06:28:54;17.38;;;15.68;;
42840;SDS011;28491;46.898;7.660;2022-08-07T06:31:21;17.00;;;15.23;;
42840;SDS011;28491;46.898;7.660;2022-08-07T06:33:47;17.05;;;15.20;;
42840;SDS011;28491;46.898;7.660;2022-08-07T06:36:13;16.63;;;14.82;;
42840;SDS011;28491;46.898;7.660;2022-08-07T06:38:42;17.70;;;14.75;;
42840;SDS011;28491;46.898;7.660;2022-08-07T06:41:15;16.15;;;13.75;;
42840;SDS011;28491;46.898;7.660;2022-08-07T06:43:46;16.67;;;14.68;;
42840;SDS011;28491;46.898;7.660;2022-08-07T06:46:15;16.33;;;14.65;;
42840;SDS011;28491;46.898;7.660;2022-08-07T06:48:41;15.98;;;12.80;;
42840;SDS011;28491;46.898;7.660;2022-08-07T06:51:07;16.02;;;13.75;;
42840;SDS011;28491;46.898;7.660;2022-08-07T06:53:38;16.25;;;12.75;;
42840;SDS011;28491;46.898;7.660;2022-08-07T06:56:05;15.70;;;13.38;;
42840;SDS011;28491;46.898;7.660;2022-08-07T06:58:33;15.45;;;13.82;;
42840;SDS011;28491;46.898;7.660;2022-08-07T07:01:01;14.10;;;12.70;;
42840;SDS011;28491;46.898;7.660;2022-08-07T07:03:30;14.55;;;12.95;;
42840;SDS011;28491;46.898;7.660;2022-08-07T07:05:56;15.18;;;13.05;;
42840;SDS011;28491;46.898;7.660;2022-08-07T07:08:28;13.55;;;12.15;;
42840;SDS011;28491;46.898;7.660;2022-08-07T07:10:54;15.00;;;13.40;;
42840;SDS011;28491;46.898;7.660;2022-08-07T07:13:28;14.30;;;11.98;;
42840;SDS011;28491;46.898;7.660;2022-08-07T07:16:01;13.77;;;12.05;;
42840;SDS011;28491;46.898;7.660;2022-08-07T07:18:37;14.40;;;12.93;;
42840;SDS011;28491;46.898;7.660;2022-08-07T07:21:09;13.65;;;12.25;;
42840;SDS011;28491;46.898;7.660;2022-08-07T07:23:46;12.57;;;11.30;;
42840;SDS011;28491;46.898;7.660;2022-08-07T07:26:13;13.40;;;12.00;;
42840;SDS011;28491;46.898;7.660;2022-08-07T07:28:47;15.38;;;12.95;;
42840;SDS011;28491;46.898;7.660;2022-08-07T07:31:24;14.02;;;12.13;;
42840;SDS011;28491;46.898;7.660;2022-08-07T07:33:53;12.73;;;11.40;;
42840;SDS011;28491;46.898;7.660;2022-08-07T07:36:22;12.70;;;11.38;;
42840;SDS011;28491;46.898;7.660;2022-08-07T07:38:49;13.50;;;12.10;;
42840;SDS011;28491;46.898;7.660;2022-08-07T07:41:16;12.55;;;11.25;;
42840;SDS011;28491;46.898;7.660;2022-08-07T07:43:45;14.95;;;13.15;;
42840;SDS011;28491;46.898;7.660;2022-08-07T07:46:14;12.40;;;10.98;;
42840;SDS011;28491;46.898;7.660;2022-08-07T07:48:40;12.27;;;10.57;;
42840;SDS011;28491;46.898;7.660;2022-08-07T07:51:06;11.38;;;10.18;;
42840;SDS011;28491;46.898;7.660;2022-08-07T07:53:33;11.23;;;10.02;;
42840;SDS011;28491;46.898;7.660;2022-08-07T07:56:03;12.82;;;10.75;;
42840;SDS011;28491;46.898;7.660;2022-08-07T07:58:31;10.95;;;9.88;;
42840;SDS011;28491;46.898;7.660;2022-08-07T08:03:25;10.25;;;9.18;;
42840;SDS011;28491;46.898;7.660;2022-08-07T08:05:54;10.65;;;9.52;;
42840;SDS011;28491;46.898;7.660;2022-08-07T08:08:21;10.65;;;9.55;;
42840;SDS011;28491;46.898;7.660;2022-08-07T08:10:48;10.60;;;9.50;;
42840;SDS011;28491;46.898;7.660;2022-08-07T08:13:15;9.93;;;8.07;;
42840;SDS011;28491;46.898;7.660;2022-08-07T08:15:42;10.63;;;9.00;;
42840;SDS011;28491;46.898;7.660;2022-08-07T08:18:11;9.20;;;8.30;;
42840;SDS011;28491;46.898;7.660;2022-08-07T08:20:38;7.72;;;6.93;;
42840;SDS011;28491;46.898;7.660;2022-08-07T08:23:06;8.60;;;7.70;;
42840;SDS011;28491;46.898;7.660;2022-08-07T08:25:50;14.00;;;7.20;;
42840;SDS011;28491;46.898;7.660;2022-08-07T08:28:38;7.28;;;6.45;;
42840;SDS011;28491;46.898;7.660;2022-08-07T08:31:08;6.97;;;5.63;;
42840;SDS011;28491;46.898;7.660;2022-08-07T08:33:35;7.45;;;5.65;;
42840;SDS011;28491;46.898;7.660;2022-08-07T08:36:04;8.65;;;5.18;;
42840;SDS011;28491;46.898;7.660;2022-08-07T08:38:38;5.43;;;4.78;;
42840;SDS011;28491;46.898;7.660;2022-08-07T08:43:39;7.13;;;4.50;;
42840;SDS011;28491;46.898;7.660;2022-08-07T08:46:27;5.60;;;4.85;;
42840;SDS011;28491;46.898;7.660;2022-08-07T08:54:25;5.50;;;4.90;;
42840;SDS011;28491;46.898;7.660;2022-08-07T08:57:06;7.15;;;5.55;;
42840;SDS011;28491;46.898;7.660;2022-08-07T09:00:10;5.80;;;4.93;;
42840;SDS011;28491;46.898;7.660;2022-08-07T09:02:36;10.65;;;7.53;;
42840;SDS011;28491;46.898;7.660;2022-08-07T09:05:22;7.95;;;6.47;;
42840;SDS011;28491;46.898;7.660;2022-08-07T09:07:56;7.80;;;7.00;;
42840;SDS011;28491;46.898;7.660;2022-08-07T09:16:14;10.93;;;8.15;;
42840;SDS011;28491;46.898;7.660;2022-08-07T09:18:59;9.50;;;6.78;;
42840;SDS011;28491;46.898;7.660;2022-08-07T09:24:25;8.07;;;6.60;;
42840;SDS011;28491;46.898;7.660;2022-08-07T09:30:15;6.82;;;6.10;;
42840;SDS011;28491;46.898;7.660;2022-08-07T09:36:07;9.43;;;6.97;;
42840;SDS011;28491;46.898;7.660;2022-08-07T09:38:44;8.10;;;6.72;;
42840;SDS011;28491;46.898;7.660;2022-08-07T09:41:17;7.85;;;7.05;;
42840;SDS011;28491;46.898;7.660;2022-08-07T09:46:43;8.60;;;6.22;;
42840;SDS011;28491;46.898;7.660;2022-08-07T09:49:46;9.57;;;7.23;;
42840;SDS011;28491;46.898;7.660;2022-08-07T09:54:55;10.20;;;7.18;;
42840;SDS011;28491;46.898;7.660;2022-08-07T10:00:34;7.95;;;7.15;;
42840;SDS011;28491;46.898;7.660;2022-08-07T10:09:39;11.10;;;8.82;;
42840;SDS011;28491;46.898;7.660;2022-08-07T10:12:16;9.52;;;8.45;;
42840;SDS011;28491;46.898;7.660;2022-08-07T10:15:17;8.68;;;7.55;;
42840;SDS011;28491;46.898;7.660;2022-08-07T10:18:10;9.93;;;8.77;;
42840;SDS011;28491;46.898;7.660;2022-08-07T10:20:56;10.32;;;9.30;;
42840;SDS011;28491;46.898;7.660;2022-08-07T10:31:58;9.70;;;8.65;;
42840;SDS011;28491;46.898;7.660;2022-08-07T10:40:36;12.48;;;10.40;;
42840;SDS011;28491;46.898;7.660;2022-08-07T10:43:16;9.48;;;8.18;;
42840;SDS011;28491;46.898;7.660;2022-08-07T10:48:13;10.57;;;9.23;;
42840;SDS011;28491;46.898;7.660;2022-08-07T10:50:56;9.60;;;8.60;;
42840;SDS011;28491;46.898;7.660;2022-08-07T10:59:19;9.88;;;8.80;;
42840;SDS011;28491;46.898;7.660;2022-08-07T11:08:11;13.65;;;9.75;;
42840;SDS011;28491;46.898;7.660;2022-08-07T11:10:51;11.98;;;8.93;;
42840;SDS011;28491;46.898;7.660;2022-08-07T11:13:25;11.32;;;10.13;;
42840;SDS011;28491;46.898;7.660;2022-08-07T11:16:05;10.77;;;9.65;;
42840;SDS011;28491;46.898;7.660;2022-08-07T11:18:41;12.18;;;9.88;;
42840;SDS011;28491;46.898;7.660;2022-08-07T11:21:16;11.65;;;9.50;;
42840;SDS011;28491;46.898;7.660;2022-08-07T11:23:56;11.10;;;9.48;;
42840;SDS011;28491;46.898;7.660;2022-08-07T11:26:44;12.77;;;9.73;;
42840;SDS011;28491;46.898;7.660;2022-08-07T11:29:17;10.93;;;9.77;;
42840;SDS011;28491;46.898;7.660;2022-08-07T11:31:54;11.73;;;10.18;;
42840;SDS011;28491;46.898;7.660;2022-08-07T11:34:45;10.73;;;9.40;;
42840;SDS011;28491;46.898;7.660;2022-08-07T11:42:51;12.23;;;10.88;;
42840;SDS011;28491;46.898;7.660;2022-08-07T11:54:34;10.88;;;9.73;;
42840;SDS011;28491;46.898;7.660;2022-08-07T11:57:31;12.20;;;10.90;;
42840;SDS011;28491;46.898;7.660;2022-08-07T12:10:58;11.80;;;10.57;;
42840;SDS011;28491;46.898;7.660;2022-08-07T12:13:58;12.55;;;11.23;;
42840;SDS011;28491;46.898;7.660;2022-08-07T12:16:41;10.73;;;9.57;;
42840;SDS011;28491;46.898;7.660;2022-08-07T12:19:33;11.93;;;10.52;;
42840;SDS011;28491;46.898;7.660;2022-08-07T12:27:38;9.57;;;8.68;;
42840;SDS011;28491;46.898;7.660;2022-08-07T12:30:10;10.52;;;9.10;;
42840;SDS011;28491;46.898;7.660;2022-08-07T12:32:41;10.30;;;9.18;;
42840;SDS011;28491;46.898;7.660;2022-08-07T12:35:22;10.57;;;9.48;;
42840;SDS011;28491;46.898;7.660;2022-08-07T12:37:49;13.60;;;9.73;;
42840;SDS011;28491;46.898;7.660;2022-08-07T12:40:18;10.45;;;9.35;;
42840;SDS011;28491;46.898;7.660;2022-08-07T12:42:52;11.23;;;9.38;;
42840;SDS011;28491;46.898;7.660;2022-08-07T12:45:20;11.73;;;9.10;;
42840;SDS011;28491;46.898;7.660;2022-08-07T12:48:12;11.95;;;9.68;;
42840;SDS011;28491;46.898;7.660;2022-08-07T12:50:41;11.25;;;10.20;;
42840;SDS011;28491;46.898;7.660;2022-08-07T12:55:49;10.45;;;9.15;;
42840;SDS011;28491;46.898;7.660;2022-08-07T12:58:25;10.63;;;9.52;;
42840;SDS011;28491;46.898;7.660;2022-08-07T13:03:34;10.95;;;9.68;;
42840;SDS011;28491;46.898;7.660;2022-08-07T13:14:21;15.45;;;12.27;;
42840;SDS011;28491;46.898;7.660;2022-08-07T13:22:19;11.27;;;9.93;;
42840;SDS011;28491;46.898;7.660;2022-08-07T13:24:59;11.23;;;10.13;;
42840;SDS011;28491;46.898;7.660;2022-08-07T13:27:44;10.77;;;9.15;;
42840;SDS011;28491;46.898;7.660;2022-08-07T13:30:16;10.37;;;8.57;;
42840;SDS011;28491;46.898;7.660;2022-08-07T13:32:49;9.63;;;8.65;;
42840;SDS011;28491;46.898;7.660;2022-08-07T13:38:10;10.13;;;8.40;;
42840;SDS011;28491;46.898;7.660;2022-08-07T13:41:00;10.27;;;8.27;;
42840;SDS011;28491;46.898;7.660;2022-08-07T13:43:29;9.93;;;7.55;;
42840;SDS011;28491;46.898;7.660;2022-08-07T13:46:00;10.45;;;8.90;;
42840;SDS011;28491;46.898;7.660;2022-08-07T13:48:28;10.85;;;8.27;;
42840;SDS011;28491;46.898;7.660;2022-08-07T13:50:55;8.70;;;7.80;;
42840;SDS011;28491;46.898;7.660;2022-08-07T13:53:30;8.88;;;7.97;;
42840;SDS011;28491;46.898;7.660;2022-08-07T13:56:00;7.83;;;6.93;;
42840;SDS011;28491;46.898;7.660;2022-08-07T13:58:28;9.27;;;8.27;;
42840;SDS011;28491;46.898;7.660;2022-08-07T14:01:19;9.30;;;7.97;;
42840;SDS011;28491;46.898;7.660;2022-08-07T14:03:46;9.80;;;8.30;;
42840;SDS011;28491;46.898;7.660;2022-08-07T14:06:13;9.23;;;7.78;;
42840;SDS011;28491;46.898;7.660;2022-08-07T14:08:43;9.25;;;7.47;;
42840;SDS011;28491;46.898;7.660;2022-08-07T14:11:12;11.45;;;8.48;;
42840;SDS011;28491;46.898;7.660;2022-08-07T14:13:40;12.38;;;8.20;;
42840;SDS011;28491;46.898;7.660;2022-08-07T14:16:13;8.38;;;7.38;;
42840;SDS011;28491;46.898;7.660;2022-08-07T14:18:44;9.20;;;8.02;;
42840;SDS011;28491;46.898;7.660;2022-08-07T14:21:14;7.95;;;7.15;;
42840;SDS011;28491;46.898;7.660;2022-08-07T14:23:47;9.25;;;8.30;;
42840;SDS011;28491;46.898;7.660;2022-08-07T14:26:19;9.48;;;8.50;;
42840;SDS011;28491;46.898;7.660;2022-08-07T14:28:47;9.63;;;8.63;;
42840;SDS011;28491;46.898;7.660;2022-08-07T14:31:14;10.55;;;9.45;;
42840;SDS011;28491;46.898;7.660;2022-08-07T14:33:41;10.32;;;8.65;;
42840;SDS011;28491;46.898;7.660;2022-08-07T14:36:08;9.73;;;8.73;;
42840;SDS011;28491;46.898;7.660;2022-08-07T14:38:35;11.48;;;9.98;;
42840;SDS011;28491;46.898;7.660;2022-08-07T14:41:05;11.23;;;9.40;;
42840;SDS011;28491;46.898;7.660;2022-08-07T14:43:37;12.00;;;9.23;;
42840;SDS011;28491;46.898;7.660;2022-08-07T14:46:05;12.20;;;9.80;;
42840;SDS011;28491;46.898;7.660;2022-08-07T14:48:34;11.98;;;9.65;;
42840;SDS011;28491;46.898;7.660;2022-08-07T14:51:11;10.52;;;8.90;;
42840;SDS011;28491;46.898;7.660;2022-08-07T14:53:44;14.18;;;11.93;;
42840;SDS011;28491;46.898;7.660;2022-08-07T14:56:11;12.73;;;9.88;;
42840;SDS011;28491;46.898;7.660;2022-08-07T14:58:40;12.52;;;10.48;;
42840;SDS011;28491;46.898;7.660;2022-08-07T15:01:09;11.73;;;10.10;;
42840;SDS011;28491;46.898;7.660;2022-08-07T15:03:36;12.45;;;10.50;;
42840;SDS011;28491;46.898;7.660;2022-08-07T15:06:04;13.80;;;11.48;;
42840;SDS011;28491;46.898;7.660;2022-08-07T15:08:31;13.20;;;11.90;;
42840;SDS011;28491;46.898;7.660;2022-08-07T15:11:05;11.63;;;10.32;;
42840;SDS011;28491;46.898;7.660;2022-08-07T15:13:36;11.68;;;10.25;;
42840;SDS011;28491;46.898;7.660;2022-08-07T15:16:10;12.48;;;10.38;;
42840;SDS011;28491;46.898;7.660;2022-08-07T15:18:45;11.98;;;10.35;;
42840;SDS011;28491;46.898;7.660;2022-08-07T15:21:18;11.32;;;10.13;;
42840;SDS011;28491;46.898;7.660;2022-08-07T15:23:47;13.27;;;9.98;;
42840;SDS011;28491;46.898;7.660;2022-08-07T15:26:19;13.02;;;9.35;;
42840;SDS011;28491;46.898;7.660;2022-08-07T15:28:46;11.65;;;9.50;;
42840;SDS011;28491;46.898;7.660;2022-08-07T15:31:17;10.65;;;9.55;;
42840;SDS011;28491;46.898;7.660;2022-08-07T15:33:47;9.98;;;8.55;;
42840;SDS011;28491;46.898;7.660;2022-08-07T15:36:13;10.32;;;9.32;;
42840;SDS011;28491;46.898;7.660;2022-08-07T15:38:40;11.88;;;8.65;;
42840;SDS011;28491;46.898;7.660;2022-08-07T15:41:10;11.55;;;8.52;;
42840;SDS011;28491;46.898;7.660;2022-08-07T15:43:41;10.13;;;8.98;;
42840;SDS011;28491;46.898;7.660;2022-08-07T15:46:17;9.55;;;8.57;;
42840;SDS011;28491;46.898;7.660;2022-08-07T15:48:51;11.27;;;9.27;;
42840;SDS011;28491;46.898;7.660;2022-08-07T15:51:17;11.45;;;8.98;;
42840;SDS011;28491;46.898;7.660;2022-08-07T15:53:45;11.50;;;8.55;;
42840;SDS011;28491;46.898;7.660;2022-08-07T15:56:14;10.02;;;8.90;;
42840;SDS011;28491;46.898;7.660;2022-08-07T15:59:14;9.98;;;8.73;;
42840;SDS011;28491;46.898;7.660;2022-08-07T16:01:46;11.45;;;8.75;;
42840;SDS011;28491;46.898;7.660;2022-08-07T16:04:15;9.27;;;8.23;;
42840;SDS011;28491;46.898;7.660;2022-08-07T16:14:28;12.57;;;10.05;;
42840;SDS011;28491;46.898;7.660;2022-08-07T16:33:47;8.32;;;7.10;;
42840;SDS011;28491;46.898;7.660;2022-08-07T16:36:17;6.97;;;6.18;;
42840;SDS011;28491;46.898;7.660;2022-08-07T16:41:57;6.93;;;5.90;;
42840;SDS011;28491;46.898;7.660;2022-08-07T16:45:16;8.65;;;6.50;;
42840;SDS011;28491;46.898;7.660;2022-08-07T16:53:33;6.32;;;5.57;;
42840;SDS011;28491;46.898;7.660;2022-08-07T16:56:18;7.65;;;6.00;;
42840;SDS011;28491;46.898;7.660;2022-08-07T17:09:43;6.53;;;5.82;;
42840;SDS011;28491;46.898;7.660;2022-08-07T17:11:52;7.28;;;6.38;;
42840;SDS011;28491;46.898;7.660;2022-08-07T17:14:42;7.00;;;6.35;;
42840;SDS011;28491;46.898;7.660;2022-08-07T17:23:16;7.22;;;6.32;;
42840;SDS011;28491;46.898;7.660;2022-08-07T17:34:10;4.70;;;4.20;;
42840;SDS011;28491;46.898;7.660;2022-08-07T17:36:44;5.50;;;4.80;;
42840;SDS011;28491;46.898;7.660;2022-08-07T17:42:00;7.03;;;5.15;;
42840;SDS011;28491;46.898;7.660;2022-08-07T17:44:43;5.63;;;4.30;;
42840;SDS011;28491;46.898;7.660;2022-08-07T17:47:17;5.77;;;4.13;;
42840;SDS011;28491;46.898;7.660;2022-08-07T17:49:53;4.88;;;4.05;;
42840;SDS011;28491;46.898;7.660;2022-08-07T17:52:39;6.32;;;4.82;;
42840;SDS011;28491;46.898;7.660;2022-08-07T18:00:10;6.05;;;3.80;;
42840;SDS011;28491;46.898;7.660;2022-08-07T18:02:46;5.88;;;4.18;;
42840;SDS011;28491;46.898;7.660;2022-08-07T18:08:13;4.55;;;3.65;;
42840;SDS011;28491;46.898;7.660;2022-08-07T18:10:48;5.15;;;4.65;;